Time;durP1;ratioP1;P1;durP2;ratioP2;P2;SDS_P1;SDS_P2;PMS_P1;PMS_P2;Temp;Humidity;BMP_temperature;BMP_pressure;BME280_temperature;BME280_humidity;BME280_pressure;Samples;Min_cycle;Max_cycle;Signal;HPM_P1;HPM_P2
2020/12/16 00:00:11;;;;;;;14.07;9.03;;;;;;;-1.20;100.00;100926.33;1739887;81;21155;-59
2020/12/16 00:02:40;;;;;;;12.80;8.15;;;;;;;-1.19;100.00;100927.97;1716281;82;21120;-59
2020/12/16 00:05:10;;;;;;;17.42;9.90;;;;;;;-1.20;100.00;100931.45;1727296;82;21145;-60
2020/12/16 00:07:38;;;;;;;14.65;8.53;;;;;;;-1.21;100.00;100937.02;1711599;82;21147;-58
2020/12/16 00:10:09;;;;;;;14.55;8.55;;;;;;;-1.20;100.00;100941.67;1718001;81;21036;-59
2020/12/16 00:12:40;;;;;;;15.08;9.25;;;;;;;-1.20;100.00;100937.38;1731989;81;21132;-61
2020/12/16 00:15:09;;;;;;;16.82;10.13;;;;;;;-1.19;100.00;100933.08;1724576;81;21172;-59
2020/12/16 00:17:37;;;;;;;16.00;9.48;;;;;;;-1.18;100.00;100934.72;1722035;81;21386;-59
2020/12/16 00:20:06;;;;;;;12.93;8.38;;;;;;;-1.18;100.00;100935.53;1730180;81;21232;-61
2020/12/16 00:22:39;;;;;;;13.58;9.25;;;;;;;-1.16;100.00;100940.58;1722425;81;20970;-60
2020/12/16 00:25:09;;;;;;;13.15;8.18;;;;;;;-1.16;100.00;100944.42;1721744;82;21089;-60
2020/12/16 00:27:37;;;;;;;15.25;9.40;;;;;;;-1.16;100.00;100940.58;1723283;81;21085;-60
2020/12/16 00:30:06;;;;;;;13.00;8.65;;;;;;;-1.17;100.00;100946.16;1730955;81;21264;-60
2020/12/16 00:32:38;;;;;;;12.95;8.88;;;;;;;-1.19;100.00;100944.13;1727219;83;21021;-59
2020/12/16 00:35:09;;;;;;;17.25;9.53;;;;;;;-1.18;100.00;100947.51;1729756;81;20984;-59
2020/12/16 00:37:39;;;;;;;14.10;9.93;;;;;;;-1.20;100.00;100945.52;1726651;81;21184;-61
2020/12/16 00:40:09;;;;;;;15.95;9.73;;;;;;;-1.21;100.00;100938.30;1727917;81;20994;-60
2020/12/16 00:42:38;;;;;;;13.30;8.45;;;;;;;-1.22;100.00;100934.89;1734469;81;22136;-59
2020/12/16 00:45:07;;;;;;;12.65;7.83;;;;;;;-1.23;100.00;100941.39;1729473;81;21069;-62
2020/12/16 00:47:36;;;;;;;16.35;9.90;;;;;;;-1.25;100.00;100941.49;1708841;82;21159;-59
2020/12/16 00:50:05;;;;;;;15.88;9.20;;;;;;;-1.26;100.00;100942.38;1718297;82;21188;-59
2020/12/16 00:52:35;;;;;;;14.58;9.68;;;;;;;-1.25;100.00;100946.61;1707572;82;21169;-61
2020/12/16 00:55:05;;;;;;;18.75;11.57;;;;;;;-1.24;100.00;100939.75;1718414;82;21274;-59
2020/12/16 00:57:34;;;;;;;17.73;11.03;;;;;;;-1.23;100.00;100948.61;1707521;82;21623;-61
2020/12/16 01:00:08;;;;;;;16.82;10.98;;;;;;;-1.20;100.00;100944.23;1708874;82;21026;-60
2020/12/16 01:02:42;;;;;;;19.15;11.15;;;;;;;-1.19;100.00;100937.73;1714038;82;21519;-60
2020/12/16 01:05:16;;;;;;;19.65;10.85;;;;;;;-1.17;100.00;100938.95;1708862;83;21173;-61
2020/12/16 01:07:45;;;;;;;18.10;11.80;;;;;;;-1.16;100.00;100945.70;1691836;83;21222;-60
2020/12/16 01:10:15;;;;;;;16.93;10.38;;;;;;;-1.16;100.00;100944.42;1718335;82;21212;-59
2020/12/16 01:12:43;;;;;;;20.05;12.25;;;;;;;-1.15;100.00;100944.31;1718263;82;21157;-59
2020/12/16 01:15:19;;;;;;;17.85;11.48;;;;;;;-1.13;100.00;100945.52;1729146;81;21202;-61
2020/12/16 01:17:50;;;;;;;20.15;11.88;;;;;;;-1.13;100.00;100954.02;1716163;82;21098;-59
2020/12/16 01:20:19;;;;;;;18.85;11.70;;;;;;;-1.12;100.00;100946.70;1728435;81;22223;-61
2020/12/16 01:22:48;;;;;;;18.67;11.20;;;;;;;-1.09;100.00;100948.27;1714368;82;21108;-62
2020/12/16 01:25:18;;;;;;;20.55;12.20;;;;;;;-1.09;100.00;100949.54;1713906;82;21169;-60
2020/12/16 01:28:00;;;;;;;19.35;11.55;;;;;;;-1.07;100.00;100957.47;1734749;81;21227;-61
2020/12/16 01:30:29;;;;;;;21.10;13.30;;;;;;;-1.04;100.00;100957.75;1710068;82;21097;-59
2020/12/16 01:32:57;;;;;;;20.17;12.33;;;;;;;-1.03;100.00;100958.11;1736981;81;21146;-61
2020/12/16 01:35:25;;;;;;;22.55;10.88;;;;;;;-1.01;100.00;100962.23;1710744;82;21180;-61
2020/12/16 01:37:54;;;;;;;17.52;10.15;;;;;;;-0.99;100.00;100959.11;1724616;81;21188;-59
2020/12/16 01:40:24;;;;;;;17.37;10.35;;;;;;;-0.98;100.00;100949.73;1711969;82;21623;-61
2020/12/16 01:42:52;;;;;;;18.60;11.85;;;;;;;-0.96;100.00;100952.18;1712557;82;21156;-59
2020/12/16 01:45:23;;;;;;;19.73;11.43;;;;;;;-0.95;100.00;100953.81;1704181;82;21603;-59
2020/12/16 01:47:52;;;;;;;19.40;11.53;;;;;;;-0.96;100.00;100959.86;1729981;81;21069;-61
2020/12/16 01:50:20;;;;;;;17.75;9.68;;;;;;;-0.95;100.00;100967.89;1737316;81;21171;-61
2020/12/16 01:52:50;;;;;;;14.55;8.85;;;;;;;-0.97;100.00;100961.59;1729778;81;21074;-59
2020/12/16 01:55:20;;;;;;;17.52;10.72;;;;;;;-0.95;100.00;100960.22;1711263;81;21646;-61
2020/12/16 01:57:50;;;;;;;14.50;8.43;;;;;;;-0.94;100.00;100950.37;1727752;81;21394;-61
2020/12/16 02:00:20;;;;;;;18.17;9.18;;;;;;;-0.94;100.00;100955.48;1732317;81;21196;-61
2020/12/16 02:02:52;;;;;;;14.78;8.78;;;;;;;-0.94;100.00;100940.95;1721720;81;21531;-61
2020/12/16 02:05:36;;;;;;;17.90;10.40;;;;;;;-0.90;100.00;100950.55;1882474;74;22578;-60
2020/12/16 02:08:07;;;;;;;19.92;11.15;;;;;;;-0.95;100.00;100949.52;1837388;77;20928;-62
2020/12/16 02:10:36;;;;;;;16.60;9.25;;;;;;;-0.92;100.00;100955.73;1821047;77;21188;-63
2020/12/16 02:13:06;;;;;;;17.45;10.50;;;;;;;-0.92;100.00;100959.58;1820484;77;20970;-61
2020/12/16 02:15:36;;;;;;;15.28;9.58;;;;;;;-0.91;100.00;100957.84;1821666;77;20999;-61
2020/12/16 02:18:08;;;;;;;16.17;9.95;;;;;;;-0.92;100.00;100956.20;1819883;78;20970;-60
2020/12/16 02:20:36;;;;;;;16.25;9.13;;;;;;;-0.94;100.00;100963.98;1799753;77;21018;-61
2020/12/16 02:23:08;;;;;;;17.45;10.50;;;;;;;-0.95;100.00;100967.43;1820567;77;21361;-63
2020/12/16 02:25:38;;;;;;;16.95;9.88;;;;;;;-0.97;100.00;100968.00;1823266;77;21031;-58
2020/12/16 02:28:08;;;;;;;16.23;9.20;;;;;;;-0.99;100.00;100966.79;1819856;78;20982;-59
2020/12/16 02:30:38;;;;;;;;;;;;;;;-0.99;100.00;100964.69;1790922;79;21660;-61
2020/12/16 02:33:22;;;;;;;20.90;10.48;;;;;;;-1.01;100.00;100962.70;1752241;80;20158;-62
2020/12/16 02:35:52;;;;;;;16.15;9.78;;;;;;;-1.04;100.00;100970.55;1776126;80;21406;-62
2020/12/16 02:38:22;;;;;;;19.65;10.10;;;;;;;-1.03;100.00;100979.41;1755841;81;21049;-59
2020/12/16 02:40:51;;;;;;;16.52;9.58;;;;;;;-1.05;100.00;100982.52;1791682;79;20990;-59
2020/12/16 02:43:19;;;;;;;16.40;10.08;;;;;;;-1.03;100.00;100981.96;1783884;79;20986;-59
2020/12/16 02:45:47;;;;;;;20.40;11.28;;;;;;;-1.00;100.00;100979.69;1786946;79;21131;-60
2020/12/16 02:48:17;;;;;;;18.10;10.70;;;;;;;-1.01;100.00;100981.42;1785742;80;21380;-62
2020/12/16 02:50:46;;;;;;;16.70;10.55;;;;;;;-0.96;100.00;100989.28;1786313;79;21137;-62
2020/12/16 02:53:15;;;;;;;17.80;10.00;;;;;;;-0.95;100.00;100989.18;1784814;79;21116;-62
2020/12/16 02:56:01;;;;;;;16.65;11.63;;;;;;;-0.89;100.00;100986.27;1857732;76;27796;-58
2020/12/16 02:58:31;;;;;;;17.62;11.68;;;;;;;-0.88;100.00;100985.81;1764133;79;20941;-61
2020/12/16 03:00:59;;;;;;;17.02;9.98;;;;;;;-0.83;100.00;100987.20;1746906;82;21165;-61
2020/12/16 03:03:43;;;;;;;17.13;9.37;;;;;;;-0.77;100.00;100986.81;1856517;75;22657;-58
2020/12/16 03:06:28;;;;;;;18.15;10.10;;;;;;;-0.81;100.00;100984.53;1748278;80;21086;-59
2020/12/16 03:09:06;;;;;;;14.13;8.70;;;;;;;-0.76;100.00;100975.68;1847344;76;22650;-59
2020/12/16 03:11:36;;;;;;;15.65;9.35;;;;;;;-0.79;100.00;100977.14;1800640;78;21534;-59
2020/12/16 03:14:06;;;;;;;14.23;8.20;;;;;;;-0.79;100.00;100980.16;1782881;80;21196;-62
2020/12/16 03:16:34;;;;;;;15.43;9.73;;;;;;;-0.79;100.00;100986.09;1784078;79;20986;-62
2020/12/16 03:19:12;;;;;;;14.10;8.57;;;;;;;-0.76;100.00;100982.51;1801214;76;22640;-59
2020/12/16 03:21:40;;;;;;;14.93;8.48;;;;;;;-0.80;100.00;100994.67;1783684;78;20943;-61
2020/12/16 03:24:21;;;;;;;15.85;10.28;;;;;;;-0.79;100.00;100997.61;1782461;80;21479;-61
2020/12/16 03:26:58;;;;;;;16.27;9.63;;;;;;;-0.76;100.00;100986.34;1813981;78;23131;-61
2020/12/16 03:29:38;;;;;;;15.53;9.18;;;;;;;-0.80;100.00;100996.41;1775644;80;21006;-60
2020/12/16 03:32:24;;;;;;;15.93;10.58;;;;;;;-0.75;100.00;101002.92;1825969;76;28029;-61
2020/12/16 03:34:54;;;;;;;16.12;10.08;;;;;;;-0.75;100.00;101000.36;1825345;78;21009;-62
2020/12/16 03:37:23;;;;;;;17.20;10.70;;;;;;;-0.70;100.00;100997.97;1805956;78;21397;-61
2020/12/16 03:39:52;;;;;;;17.10;10.45;;;;;;;-0.70;100.00;101000.08;1826446;78;20914;-59
2020/12/16 03:42:21;;;;;;;18.05;10.55;;;;;;;-0.68;100.00;101011.48;1817298;78;20963;-62
2020/12/16 03:44:52;;;;;;;17.35;10.60;;;;;;;-0.67;100.00;101011.88;1829923;77;20956;-60
2020/12/16 03:47:21;;;;;;;18.57;10.25;;;;;;;-0.68;100.00;101007.22;1837110;77;20950;-60
2020/12/16 03:49:51;;;;;;;20.77;12.73;;;;;;;-0.67;100.00;101015.72;1824738;78;21508;-60
2020/12/16 03:52:19;;;;;;;22.85;13.88;;;;;;;-0.67;100.00;101009.31;1824135;77;21025;-60
2020/12/16 03:55:04;;;;;;;21.77;13.33;;;;;;;-0.65;100.00;101007.47;1862911;76;22647;-60
2020/12/16 03:57:46;;;;;;;24.30;15.75;;;;;;;-0.70;100.00;101024.39;1832073;77;20926;-61
2020/12/16 04:00:30;;;;;;;24.00;16.23;;;;;;;-0.63;100.00;101021.02;1823875;76;22807;-61
2020/12/16 04:03:00;;;;;;;21.85;13.83;;;;;;;-0.65;100.00;101020.27;1720375;82;20970;-61
2020/12/16 04:05:38;;;;;;;20.70;12.63;;;;;;;-0.60;100.00;101028.52;1825479;76;22707;-61
2020/12/16 04:08:06;;;;;;;18.85;10.78;;;;;;;-0.62;100.00;101038.02;1767121;79;20949;-62
2020/12/16 04:10:53;;;;;;;18.12;13.38;;;;;;;-0.57;100.00;101031.72;1864006;74;28320;-63
2020/12/16 04:13:22;;;;;;;17.35;10.28;;;;;;;-0.59;100.00;101035.28;1806721;79;20975;-61
2020/12/16 04:15:50;;;;;;;16.05;10.30;;;;;;;-0.57;100.00;101036.84;1799018;79;21277;-60
2020/12/16 04:18:18;;;;;;;17.62;10.70;;;;;;;-0.57;100.00;101043.24;1810180;79;20994;-62
2020/12/16 04:20:47;;;;;;;19.57;11.22;;;;;;;-0.59;100.00;101041.68;1792854;78;21053;-62
2020/12/16 04:23:15;;;;;;;18.10;10.50;;;;;;;-0.59;100.00;101051.92;1823114;77;21024;-64
2020/12/16 04:25:45;;;;;;;15.65;9.90;;;;;;;-0.58;100.00;101057.41;1780840;79;21032;-61
2020/12/16 04:28:15;;;;;;;20.12;11.53;;;;;;;-0.57;100.00;101055.20;1820543;77;21199;-62
2020/12/16 04:30:43;;;;;;;16.95;9.80;;;;;;;-0.59;100.00;101060.89;1792917;78;20978;-62
2020/12/16 04:33:12;;;;;;;19.55;10.60;;;;;;;-0.60;100.00;101061.34;1816563;77;21014;-61
2020/12/16 04:35:40;;;;;;;20.62;10.58;;;;;;;-0.59;100.00;101066.00;1817297;77;21025;-64
2020/12/16 04:38:08;;;;;;;17.85;10.55;;;;;;;-0.57;100.00;101071.84;1834571;77;21136;-59
2020/12/16 04:40:38;;;;;;;17.25;10.15;;;;;;;-0.55;100.00;101070.03;1820581;78;21373;-63
2020/12/16 04:43:10;;;;;;;18.87;10.32;;;;;;;-0.55;100.00;101073.87;1819253;78;21810;-63
2020/12/16 04:45:40;;;;;;;16.55;9.78;;;;;;;-0.56;100.00;101071.77;1823242;77;21006;-63
2020/12/16 04:48:09;;;;;;;16.70;10.15;;;;;;;-0.57;100.00;101075.69;1817243;77;21006;-64
2020/12/16 04:50:38;;;;;;;17.50;10.43;;;;;;;-0.57;100.00;101075.69;1820932;77;21622;-64
2020/12/16 04:53:09;;;;;;;16.27;9.98;;;;;;;-0.58;100.00;101080.45;1819048;77;21330;-61
2020/12/16 04:55:40;;;;;;;17.73;10.35;;;;;;;-0.58;100.00;101080.45;1820428;78;21014;-61
2020/12/16 04:58:13;;;;;;;15.72;8.98;;;;;;;-0.58;100.00;101077.89;1818330;78;21031;-65
2020/12/16 05:00:41;;;;;;;14.78;8.55;;;;;;;-0.58;100.00;101077.42;1819592;77;20958;-63
2020/12/16 05:03:19;;;;;;;17.77;10.60;;;;;;;-0.54;100.00;101074.23;1757930;79;22781;-61
2020/12/16 05:05:49;;;;;;;18.67;9.43;;;;;;;-0.57;100.00;101083.37;1727325;82;20969;-62
2020/12/16 05:08:17;;;;;;;17.95;10.58;;;;;;;-0.58;100.00;101083.01;1724126;81;21213;-61
2020/12/16 05:10:48;;;;;;;16.93;10.75;;;;;;;-0.58;100.00;101085.11;1722281;82;21076;-68
2020/12/16 05:13:19;;;;;;;15.28;8.83;;;;;;;-0.57;100.00;101088.06;1708176;82;21127;-65
2020/12/16 05:15:48;;;;;;;;;;;;;;;-0.55;100.00;101081.55;1736516;82;21057;-66
2020/12/16 05:18:25;;;;;;;15.93;9.53;;;;;;;-0.54;100.00;101084.02;1727044;82;20152;-65
2020/12/16 05:20:56;;;;;;;20.17;11.38;;;;;;;-0.54;100.00;101079.35;1733337;82;21203;-65
2020/12/16 05:23:29;;;;;;;18.82;11.80;;;;;;;-0.55;100.00;101079.81;1734072;82;21017;-65
2020/12/16 05:26:09;;;;;;;21.50;11.85;;;;;;;-0.57;100.00;101088.48;1738372;82;20993;-65
2020/12/16 05:28:46;;;;;;;18.10;10.05;;;;;;;-0.59;100.00;101094.99;1740181;81;21029;-61
2020/12/16 05:31:14;;;;;;;19.85;12.58;;;;;;;-0.57;100.00;101100.02;1738698;82;20953;-64
2020/12/16 05:33:49;;;;;;;18.27;10.90;;;;;;;-0.55;100.00;101099.48;1740166;81;21209;-60
2020/12/16 05:36:29;;;;;;;18.73;10.75;;;;;;;-0.54;100.00;101099.84;1733316;82;21099;-61
2020/12/16 05:38:58;;;;;;;16.80;10.15;;;;;;;-0.55;100.00;101093.89;1738976;82;20985;-64
2020/12/16 05:41:31;;;;;;;16.45;10.60;;;;;;;-0.54;100.00;101098.09;1733527;82;21100;-61
2020/12/16 05:44:18;;;;;;;19.67;11.78;;;;;;;-0.55;100.00;101099.02;1739560;81;20982;-61
2020/12/16 05:46:50;;;;;;;19.23;12.30;;;;;;;-0.56;100.00;101102.50;1743272;81;21281;-61
2020/12/16 05:49:24;;;;;;;;;;;;;;;-0.54;100.00;101108.80;1742504;81;21299;-61
2020/12/16 05:51:59;;;;;;;19.62;11.35;;;;;;;-0.54;100.00;101113.92;1730350;82;20556;-61
2020/12/16 05:54:27;;;;;;;18.75;10.72;;;;;;;-0.54;100.00;101116.02;1739674;82;20993;-61
2020/12/16 06:00:19;;;;;;;20.53;11.63;;;;;;;-0.46;100.00;101118.59;1823032;76;22693;-65
2020/12/16 06:02:47;;;;;;;20.85;12.50;;;;;;;-0.49;100.00;101124.73;1788693;78;20990;-60
2020/12/16 06:05:16;;;;;;;18.05;11.45;;;;;;;-0.50;100.00;101128.19;1785048;80;21263;-61
2020/12/16 06:07:46;;;;;;;19.12;11.97;;;;;;;-0.48;100.00;101123.00;1791171;79;21534;-60
2020/12/16 06:10:15;;;;;;;17.77;11.35;;;;;;;-0.46;100.00;101132.22;1783945;80;21029;-63
2020/12/16 06:12:44;;;;;;;17.23;10.60;;;;;;;-0.44;100.00;101132.96;1784568;79;21038;-66
2020/12/16 06:15:15;;;;;;;18.50;11.20;;;;;;;-0.43;100.00;101135.06;1785037;80;21025;-61
2020/12/16 06:17:47;;;;;;;17.35;11.40;;;;;;;-0.44;100.00;101138.09;1787961;79;21370;-60
2020/12/16 06:20:18;;;;;;;19.95;12.13;;;;;;;-0.42;100.00;101144.39;1784678;79;21033;-64
2020/12/16 06:22:48;;;;;;;17.77;11.25;;;;;;;-0.42;100.00;101141.36;1786528;79;20970;-60
2020/12/16 06:25:18;;;;;;;18.10;11.95;;;;;;;-0.43;100.00;101148.69;1796039;79;20926;-64
2020/12/16 06:27:48;;;;;;;20.23;12.98;;;;;;;-0.43;100.00;101151.25;1789376;79;21104;-59
2020/12/16 06:30:27;;;;;;;20.68;13.03;;;;;;;-0.42;100.00;101159.30;1787921;79;21248;-61
2020/12/16 06:33:10;;;;;;;23.67;13.20;;;;;;;-0.39;100.00;101162.14;1783862;79;21133;-66
2020/12/16 06:35:39;;;;;;;19.07;10.78;;;;;;;-0.36;100.00;101164.07;1793908;79;20970;-61
2020/12/16 06:38:23;;;;;;;17.02;11.55;;;;;;;-0.34;100.00;101165.25;1795326;79;21242;-65
2020/12/16 06:40:56;;;;;;;18.92;12.43;;;;;;;-0.31;100.00;101159.95;1800172;79;20914;-60
2020/12/16 06:43:37;;;;;;;17.90;10.18;;;;;;;-0.26;100.00;101163.08;1795468;79;22312;-60
2020/12/16 06:46:31;;;;;;;21.15;12.85;;;;;;;-0.22;100.00;101165.83;1796754;79;21109;-59
2020/12/16 06:49:03;;;;;;;16.95;11.22;;;;;;;-0.17;100.00;101162.98;1787872;79;20935;-60
2020/12/16 06:51:43;;;;;;;16.90;11.12;;;;;;;-0.14;100.00;101161.06;1798640;79;20930;-64
2020/12/16 06:54:16;;;;;;;23.27;13.38;;;;;;;-0.12;100.00;101160.50;1763267;79;20985;-64
2020/12/16 06:56:50;;;;;;;20.02;12.93;;;;;;;-0.09;100.00;101165.44;1784181;80;21197;-59
2020/12/16 06:59:45;;;;;;;16.12;11.45;;;;;;;-0.04;100.00;101162.59;1787927;79;20966;-64
2020/12/16 07:02:24;;;;;;;16.62;11.50;;;;;;;0.02;100.00;101164.80;1785033;79;21168;-58
2020/12/16 07:04:53;;;;;;;16.25;10.80;;;;;;;0.06;100.00;101167.55;1775765;80;21037;-60
2020/12/16 07:07:46;;;;;;;16.23;10.78;;;;;;;0.08;100.00;101163.63;1783048;80;21148;-65
2020/12/16 07:10:39;;;;;;;17.95;11.33;;;;;;;0.07;100.00;101172.20;1776313;80;21414;-63
2020/12/16 07:13:30;;;;;;;14.55;10.15;;;;;;;0.09;100.00;101172.49;1773869;79;21072;-64
2020/12/16 07:16:13;;;;;;;19.80;13.08;;;;;;;0.13;100.00;101168.82;1783782;79;22478;-65
2020/12/16 07:18:48;;;;;;;17.55;12.43;;;;;;;0.15;100.00;101175.98;1781864;80;20998;-64
2020/12/16 07:21:19;;;;;;;14.38;9.83;;;;;;;0.20;100.00;101168.00;1781840;80;21503;-63
2020/12/16 07:23:57;;;;;;;18.87;12.30;;;;;;;0.21;100.00;101180.72;1783907;79;21185;-65
2020/12/16 07:26:42;;;;;;;19.87;11.68;;;;;;;0.20;100.00;101185.48;1751376;80;21188;-65
2020/12/16 07:29:30;;;;;;;16.05;10.13;;;;;;;0.22;100.00;101182.35;1782330;80;21047;-65
2020/12/16 07:32:12;;;;;;;14.98;10.18;;;;;;;0.24;100.00;101184.38;1769315;80;28620;-63
2020/12/16 07:34:50;;;;;;;18.65;11.50;;;;;;;0.24;100.00;101182.28;1783326;79;21176;-62
2020/12/16 07:37:22;;;;;;;18.32;11.78;;;;;;;0.24;100.00;101183.09;1782535;80;21203;-61
2020/12/16 07:39:56;;;;;;;19.55;12.07;;;;;;;0.32;100.00;101190.78;1781001;79;20974;-58
2020/12/16 07:42:33;;;;;;;16.57;11.05;;;;;;;0.42;100.00;101182.90;1762957;80;20958;-59
2020/12/16 07:45:09;;;;;;;17.92;11.95;;;;;;;0.48;100.00;101182.50;1782668;79;21061;-61
2020/12/16 07:47:38;;;;;;;21.85;14.00;;;;;;;0.57;100.00;101178.09;1756706;80;21068;-59
2020/12/16 07:50:09;;;;;;;17.82;12.15;;;;;;;0.75;100.00;101177.84;1715060;82;21201;-59
2020/12/16 07:52:38;;;;;;;16.73;11.12;;;;;;;1.04;100.00;101172.96;1730558;82;20978;-59
2020/12/16 07:55:06;;;;;;;15.75;10.78;;;;;;;1.42;100.00;101169.64;1777570;80;21010;-59
2020/12/16 07:57:35;;;;;;;14.45;11.03;;;;;;;1.82;100.00;101176.80;1781721;80;21140;-56
2020/12/16 08:00:04;;;;;;;16.15;12.00;;;;;;;2.09;100.00;101180.52;1780280;79;21496;-57
2020/12/16 08:02:44;;;;;;;17.37;12.70;;;;;;;2.27;100.00;101177.59;1818778;76;22862;-63
2020/12/16 08:05:14;;;;;;;13.80;10.25;;;;;;;2.17;100.00;101174.84;1784306;79;20935;-58
2020/12/16 08:07:42;;;;;;;16.80;11.57;;;;;;;1.94;100.00;101175.14;1775632;79;21192;-59
2020/12/16 08:10:11;;;;;;;16.70;11.65;;;;;;;1.75;100.00;101181.99;1719845;83;21009;-60
2020/12/16 08:12:42;;;;;;;15.63;10.95;;;;;;;1.62;100.00;101187.11;1720049;82;20995;-60
2020/12/16 08:15:16;;;;;;;13.80;9.48;;;;;;;1.50;100.00;101195.64;1720806;82;21045;-60
2020/12/16 08:17:47;;;;;;;16.82;10.75;;;;;;;1.33;100.00;101192.91;1730568;81;20934;-59
2020/12/16 08:20:22;;;;;;;17.20;10.55;;;;;;;1.12;100.00;101191.26;1770206;80;21196;-54
2020/12/16 08:22:57;;;;;;;14.50;9.55;;;;;;;0.93;100.00;101186.48;1776379;79;21156;-56
2020/12/16 08:25:25;;;;;;;15.05;10.48;;;;;;;0.76;100.00;101196.16;1763992;80;21060;-55
2020/12/16 08:27:55;;;;;;;16.25;10.63;;;;;;;0.60;100.00;101202.25;1781407;79;20981;-58
2020/12/16 08:30:27;;;;;;;21.85;11.95;;;;;;;0.48;100.00;101201.27;1784802;80;26531;-54
2020/12/16 08:33:06;;;;;;;13.30;9.20;;;;;;;0.41;100.00;101206.87;1770958;79;21630;-55
2020/12/16 08:35:52;;;;;;;15.32;10.63;;;;;;;0.39;100.00;101205.70;1784452;80;20935;-55
2020/12/16 08:38:43;;;;;;;15.90;10.23;;;;;;;0.34;100.00;101205.60;1779180;80;20958;-56
2020/12/16 08:41:12;;;;;;;17.42;11.90;;;;;;;0.34;100.00;101200.47;1781975;79;21226;-56
2020/12/16 08:46:23;;;;;;;19.00;11.97;;;;;;;0.51;100.00;101196.42;1866827;74;22694;-55
2020/12/16 08:49:00;;;;;;;18.65;11.88;;;;;;;0.53;100.00;101198.88;1814241;77;20970;-55
2020/12/16 08:51:44;;;;;;;15.65;9.83;;;;;;;0.55;100.00;101199.16;1805773;77;21273;-58
2020/12/16 08:54:18;;;;;;;14.98;9.93;;;;;;;0.56;100.00;101208.96;1804117;78;20994;-55
2020/12/16 08:56:58;;;;;;;16.20;10.30;;;;;;;0.57;100.00;101199.91;1789407;78;20974;-56
2020/12/16 08:59:27;;;;;;;15.80;10.70;;;;;;;0.57;100.00;101192.20;1806020;78;21033;-56
2020/12/16 09:02:09;;;;;;;17.15;10.93;;;;;;;0.59;100.00;101195.48;1825074;77;20959;-54
2020/12/16 09:04:39;;;;;;;19.32;12.33;;;;;;;0.59;100.00;101195.95;1805581;78;21596;-54
2020/12/16 09:07:13;;;;;;;19.92;11.63;;;;;;;0.65;100.00;101189.98;1829489;77;21166;-55
2020/12/16 09:09:50;;;;;;;17.25;11.55;;;;;;;0.70;100.00;101184.09;1812442;77;20978;-55
2020/12/16 09:12:19;;;;;;;19.17;12.15;;;;;;;0.79;100.00;101181.86;1755676;80;20968;-55
2020/12/16 09:15:03;;;;;;;21.93;13.68;;;;;;;0.85;100.00;101174.60;1776017;80;21527;-55
2020/12/16 09:17:34;;;;;;;19.32;13.30;;;;;;;0.95;100.00;101170.53;1768728;79;21201;-54
2020/12/16 09:20:02;;;;;;;19.98;12.47;;;;;;;1.04;100.00;101169.58;1781430;80;21061;-55
2020/12/16 09:22:32;;;;;;;17.35;11.55;;;;;;;1.11;100.00;101170.83;1724816;80;21205;-55
2020/12/16 09:25:02;;;;;;;19.80;12.00;;;;;;;1.16;100.00;101163.64;1780600;80;21039;-55
2020/12/16 09:27:31;;;;;;;17.87;10.65;;;;;;;1.14;100.00;101164.22;1785418;80;21116;-55
2020/12/16 09:29:59;;;;;;;17.50;12.13;;;;;;;1.09;100.00;101164.95;1783908;80;21373;-54
2020/12/16 09:32:27;;;;;;;18.92;11.90;;;;;;;1.11;100.00;101171.65;1751505;80;21187;-59
2020/12/16 09:34:55;;;;;;;20.25;12.93;;;;;;;1.14;100.00;101175.77;1750863;80;21616;-55
2020/12/16 09:37:28;;;;;;;18.07;11.45;;;;;;;1.18;100.00;101173.36;1758882;81;21043;-56
2020/12/16 09:40:10;;;;;;;15.85;11.00;;;;;;;1.21;100.00;101176.98;1783752;80;20972;-54
2020/12/16 09:42:38;;;;;;;19.70;12.45;;;;;;;1.24;100.00;101176.80;1762000;80;21230;-56
2020/12/16 09:45:20;;;;;;;19.40;12.65;;;;;;;1.23;100.00;101180.30;1748100;81;21165;-54
2020/12/16 09:47:50;;;;;;;17.67;10.98;;;;;;;1.19;100.00;101178.85;1739506;81;21208;-55
2020/12/16 09:50:27;;;;;;;19.37;11.70;;;;;;;1.13;100.00;101182.63;1761999;80;21109;-55
2020/12/16 09:53:07;;;;;;;17.70;11.12;;;;;;;1.09;100.00;101190.63;1789441;79;21010;-55
2020/12/16 09:55:39;;;;;;;15.85;10.43;;;;;;;1.03;100.00;101189.30;1743550;81;21208;-55
2020/12/16 09:58:10;;;;;;;23.55;14.65;;;;;;;0.97;100.00;101192.25;1781565;80;21155;-55
2020/12/16 10:00:40;;;;;;;21.05;13.38;;;;;;;0.91;100.00;101196.05;1753567;80;21551;-56
2020/12/16 10:03:13;;;;;;;17.62;12.60;;;;;;;0.90;100.00;101197.41;1757609;80;21675;-56
2020/12/16 10:05:41;;;;;;;17.20;11.05;;;;;;;0.85;100.00;101202.84;1780339;80;21187;-55
2020/12/16 10:08:12;;;;;;;16.50;11.78;;;;;;;0.79;100.00;101208.80;1782852;78;22165;-59
2020/12/16 10:10:40;;;;;;;19.42;11.22;;;;;;;0.73;100.00;101205.72;1784212;79;21203;-54
2020/12/16 10:13:08;;;;;;;16.93;11.48;;;;;;;0.71;100.00;101206.72;1785998;79;21142;-54
2020/12/16 10:15:36;;;;;;;18.60;11.70;;;;;;;0.69;100.00;101206.83;1747071;81;21203;-54
2020/12/16 10:18:05;;;;;;;20.43;13.15;;;;;;;0.63;100.00;101203.81;1770439;80;21147;-54
2020/12/16 10:20:33;;;;;;;16.35;11.22;;;;;;;0.59;100.00;101205.75;1781241;80;21160;-54
2020/12/16 10:23:02;;;;;;;17.30;11.43;;;;;;;0.57;100.00;101203.75;1769754;80;21132;-54
2020/12/16 10:25:31;;;;;;;20.08;12.20;;;;;;;0.56;100.00;101211.52;1755744;80;20959;-55
2020/12/16 10:27:59;;;;;;;24.82;13.90;;;;;;;0.53;100.00;101211.70;1791052;80;21098;-54
2020/12/16 10:30:29;;;;;;;19.23;12.18;;;;;;;0.50;100.00;101210.64;1781324;79;21610;-54
2020/12/16 10:32:57;;;;;;;18.75;12.65;;;;;;;0.48;100.00;101208.15;1761674;80;21147;-53
2020/12/16 10:35:26;;;;;;;19.60;11.85;;;;;;;0.48;100.00;101206.41;1772969;80;21135;-53
2020/12/16 10:37:54;;;;;;;17.57;11.93;;;;;;;0.49;100.00;101209.79;1757109;80;21029;-53
2020/12/16 10:40:25;;;;;;;17.42;12.35;;;;;;;0.50;100.00;101205.51;1782086;80;21267;-56
2020/12/16 10:42:54;;;;;;;18.40;12.35;;;;;;;0.50;100.00;101201.20;1741058;80;21175;-53
2020/12/16 10:45:24;;;;;;;20.05;13.20;;;;;;;0.51;100.00;101196.42;1753878;80;21362;-54
2020/12/16 10:47:57;;;;;;;23.92;13.85;;;;;;;0.54;100.00;101196.70;1767056;80;21210;-55
2020/12/16 10:50:30;;;;;;;20.37;14.35;;;;;;;0.56;100.00;101202.08;1771636;80;21003;-56
2020/12/16 10:53:00;;;;;;;23.62;14.00;;;;;;;0.59;100.00;101209.59;1757205;80;21115;-53
2020/12/16 10:55:29;;;;;;;17.60;11.90;;;;;;;0.59;100.00;101214.72;1770773;80;21162;-53
2020/12/16 10:57:56;;;;;;;17.65;12.55;;;;;;;0.59;100.00;101214.72;1773519;80;21470;-53
2020/12/16 11:00:25;;;;;;;20.32;12.75;;;;;;;0.62;100.00;101215.83;1773172;80;21002;-53
2020/12/16 11:02:52;;;;;;;16.10;10.55;;;;;;;0.60;100.00;101216.36;1771356;79;21030;-53
2020/12/16 11:05:21;;;;;;;18.15;11.78;;;;;;;0.56;100.00;101217.47;1772876;79;21165;-54
2020/12/16 11:07:50;;;;;;;19.10;12.15;;;;;;;0.53;100.00;101216.41;1775241;80;21115;-53
2020/12/16 11:10:18;;;;;;;18.62;12.55;;;;;;;0.48;100.00;101214.56;1757511;80;21427;-56
2020/12/16 11:12:46;;;;;;;17.77;12.23;;;;;;;0.45;100.00;101213.46;1773379;79;21050;-54
2020/12/16 11:15:15;;;;;;;17.00;11.00;;;;;;;0.44;100.00;101220.80;1772726;80;21207;-55
2020/12/16 11:17:43;;;;;;;16.80;11.63;;;;;;;0.45;100.00;101228.85;1773989;80;21546;-55
2020/12/16 11:20:11;;;;;;;20.25;12.63;;;;;;;0.43;100.00;101225.58;1767350;78;21155;-53
2020/12/16 11:22:39;;;;;;;23.40;15.75;;;;;;;0.41;100.00;101227.39;1772782;80;21375;-53
2020/12/16 11:25:08;;;;;;;18.25;12.98;;;;;;;0.41;100.00;101226.11;1781477;79;21276;-54
2020/12/16 11:27:36;;;;;;;19.73;12.15;;;;;;;0.44;100.00;101228.03;1779280;79;21133;-54
2020/12/16 11:30:04;;;;;;;24.70;12.93;;;;;;;0.49;100.00;101231.59;1784673;80;21095;-56
2020/12/16 11:32:34;;;;;;;20.00;11.20;;;;;;;0.53;100.00;101230.95;1736225;80;21124;-53
2020/12/16 11:35:02;;;;;;;21.97;12.50;;;;;;;0.57;100.00;101229.41;1750006;81;22108;-54